Airfield :







YOU CAN JOIN US ON...

 
LOGIN :

Register | Disclaimer

   EN    FR    IT 

 









Legend :    VFR   Marginal VFR   IFR   Intensive IFR   Very Intensive IFR
Visi :
Ceiling :
>= 8 km
>= 3000ft
5 to 8 km
1000 to 3000 ft
1500m to 5 km
500 to 1000 ft
800 to 1500m
200 to 500 ft
< 800m
< 200 ft
Symbols :   Thunderstorms  Fog  Heavy snow  Heavy precipitations  Wind > 20 kt






- Airport Elevation : 577 ft


KVSF - Hartness State (Springfield)

CURRENT METAR :
  • 170354Z AUTO 00000KT 10SM CLR M10/M16 A3054 RMK AO2 SLP352 T11001156

EXPIRED METARs :
  • 170254Z AUTO 00000KT 10SM CLR M08/M17 A3054 RMK AO2 SLP353 T10831167 50002
  • 170154Z AUTO 00000KT 10SM CLR M06/M18 A3055 RMK AO2 SLP356 T10611183

TAF N/A



MET'MAP, your aeronautical weather chart ! - Copyright ORBIFLY December 2007 - Disclaimer

ORBIFLY MET'MAP TEAM :

Programming & Development : Alexandra Zaïnal
Concept & Development : Baudouin d'Aumeries
Co-Development & Prog : Marc-Olivier Méhu
Technical & hardware support : Manuel Goepfert

Contact : metmap@orbifly.com




SOURCES & CREDITS :

   NOAA